Time;durP1;ratioP1;P1;durP2;ratioP2;P2;SDS_P1;SDS_P2;PMS_P1;PMS_P2;Temp;Humidity;BMP_temperature;BMP_pressure;BME280_temperature;BME280_humidity;BME280_pressure;Samples;Min_cycle;Max_cycle;Signal;HPM_P1;HPM_P2
2022/06/01 00:00:42;;;;;;;4.43;3.83;;;9.80;99.90;;;;;;5087930;28;20571;-70
2022/06/01 00:03:09;;;;;;;5.03;4.00;;;9.70;99.90;;;;;;5086510;28;20286;-70
2022/06/01 00:05:36;;;;;;;5.03;4.03;;;9.60;99.90;;;;;;5084181;28;20615;-70
2022/06/01 00:08:04;;;;;;;5.93;4.70;;;9.70;99.90;;;;;;5086607;28;20209;-70
2022/06/01 00:10:33;;;;;;;4.60;4.03;;;9.60;99.90;;;;;;5083453;28;20202;-70
2022/06/01 00:13:00;;;;;;;5.83;4.30;;;9.50;99.90;;;;;;5086759;28;20218;-70
2022/06/01 00:15:28;;;;;;;6.33;4.10;;;9.50;99.90;;;;;;5087212;28;20275;-70
2022/06/01 00:17:57;;;;;;;5.00;4.33;;;9.40;99.90;;;;;;5085276;28;20251;-71
2022/06/01 00:20:24;;;;;;;4.67;4.20;;;9.30;99.90;;;;;;5082989;28;20217;-71
2022/06/01 00:22:51;;;;;;;6.47;4.37;;;9.40;99.90;;;;;;5085354;28;20614;-71
2022/06/01 00:25:18;;;;;;;4.93;4.40;;;9.40;99.90;;;;;;5083564;28;20238;-71
2022/06/01 00:27:46;;;;;;;4.67;3.90;;;9.50;99.90;;;;;;5084675;28;20242;-71
2022/06/01 00:30:16;;;;;;;5.87;3.97;;;9.40;99.90;;;;;;5081328;28;20230;-71
2022/06/01 00:32:43;;;;;;;4.70;3.70;;;9.40;99.90;;;;;;5082261;28;20683;-71
2022/06/01 00:35:12;;;;;;;5.40;4.20;;;9.40;99.90;;;;;;5086942;28;20284;-71
2022/06/01 00:37:39;;;;;;;6.83;4.33;;;9.40;99.90;;;;;;5082860;28;20310;-70
2022/06/01 00:40:07;;;;;;;5.73;4.67;;;9.40;99.90;;;;;;5087691;28;20687;-71
2022/06/01 00:42:37;;;;;;;6.77;4.27;;;9.50;99.90;;;;;;5078358;28;20664;-70
2022/06/01 00:45:09;;;;;;;5.17;4.57;;;9.50;99.90;;;;;;5085237;28;20284;-71
2022/06/01 00:47:36;;;;;;;5.70;4.07;;;9.40;99.90;;;;;;5083349;28;20573;-71
2022/06/01 00:50:09;;;;;;;6.13;4.57;;;9.40;99.90;;;;;;5084563;28;20228;-71
2022/06/01 00:52:38;;;;;;;5.33;4.20;;;9.40;99.90;;;;;;5082275;28;20234;-71
2022/06/01 00:55:09;;;;;;;6.10;5.00;;;9.40;99.90;;;;;;5084892;28;20241;-71
2022/06/01 00:57:37;;;;;;;5.43;4.43;;;9.40;99.90;;;;;;5082517;28;20236;-71
2022/06/01 01:00:12;;;;;;;4.87;4.33;;;9.40;99.90;;;;;;5083290;28;20292;-71
2022/06/01 01:02:40;;;;;;;6.97;4.40;;;9.40;99.90;;;;;;5084462;28;20201;-71
2022/06/01 01:05:11;;;;;;;5.63;4.40;;;9.50;99.90;;;;;;5081202;28;20236;-71
2022/06/01 01:07:39;;;;;;;5.07;4.47;;;9.40;99.90;;;;;;5087163;28;20239;-71
2022/06/01 01:10:07;;;;;;;6.70;4.23;;;9.40;99.90;;;;;;5085033;28;20194;-71
2022/06/01 01:15:18;;;;;;;5.97;4.43;;;9.60;99.90;;;;;;5085665;28;20201;-71
2022/06/01 01:17:47;;;;;;;6.30;4.47;;;9.60;99.90;;;;;;5086410;28;20233;-71
2022/06/01 01:20:16;;;;;;;4.77;4.07;;;9.70;99.90;;;;;;5083655;28;20233;-71
2022/06/01 01:22:52;;;;;;;6.77;4.30;;;9.80;99.90;;;;;;5082297;28;20679;-71
2022/06/01 01:25:26;;;;;;;6.30;4.93;;;9.90;99.90;;;;;;5080603;28;20448;-71
2022/06/01 01:27:57;;;;;;;6.70;4.60;;;9.70;99.90;;;;;;5085040;28;20244;-71
2022/06/01 01:30:41;;;;;;;6.40;4.20;;;9.70;99.90;;;;;;5080792;28;20206;-71
2022/06/01 01:33:11;;;;;;;5.63;4.03;;;9.90;99.90;;;;;;5071535;28;20305;-71
2022/06/01 01:35:39;;;;;;;5.87;4.27;;;10.00;99.90;;;;;;5083070;28;20210;-71
2022/06/01 01:38:10;;;;;;;5.90;4.97;;;10.10;99.90;;;;;;5087128;28;20247;-71
2022/06/01 01:40:38;;;;;;;5.80;4.90;;;10.10;99.90;;;;;;5087919;28;20218;-71
2022/06/01 01:43:07;;;;;;;7.03;4.47;;;10.30;99.90;;;;;;5088430;28;20674;-71
2022/06/01 01:45:36;;;;;;;7.23;4.07;;;10.30;99.90;;;;;;5083266;28;20695;-71
2022/06/01 01:48:04;;;;;;;5.10;4.23;;;10.20;99.90;;;;;;5087036;28;20218;-71
2022/06/01 01:50:31;;;;;;;7.60;4.23;;;10.30;99.90;;;;;;5087815;28;20237;-71
2022/06/01 01:52:58;;;;;;;8.60;4.53;;;10.30;99.90;;;;;;5081203;28;20234;-71
2022/06/01 01:55:33;;;;;;;5.73;4.60;;;10.30;99.90;;;;;;5082267;28;20202;-71
2022/06/01 01:58:09;;;;;;;5.77;4.30;;;10.30;99.90;;;;;;5084923;28;20202;-71
2022/06/01 02:00:39;;;;;;;6.63;4.73;;;10.30;99.90;;;;;;5085973;28;20194;-71
2022/06/01 02:03:12;;;;;;;6.33;4.50;;;10.50;99.90;;;;;;5081700;28;20293;-71
2022/06/01 02:08:32;;;;;;;6.23;4.63;;;10.40;99.90;;;;;;5083496;28;20383;-71
2022/06/01 02:13:54;;;;;;;7.70;5.60;;;10.40;99.90;;;;;;5088199;28;20297;-71
2022/06/01 02:16:24;;;;;;;7.37;4.97;;;10.40;99.90;;;;;;5086901;28;20653;-71
2022/06/01 02:18:54;;;;;;;7.53;5.10;;;10.50;99.90;;;;;;5084340;28;20206;-71
2022/06/01 02:21:26;;;;;;;6.73;4.80;;;10.50;99.90;;;;;;5088166;28;20626;-71
2022/06/01 02:23:55;;;;;;;8.03;5.80;;;10.50;99.90;;;;;;5091695;28;20202;-71
2022/06/01 02:26:22;;;;;;;8.10;5.27;;;10.50;99.90;;;;;;5092471;28;20284;-71
2022/06/01 02:28:57;;;;;;;8.10;5.80;;;10.50;99.90;;;;;;5105841;28;20287;-71
2022/06/01 02:31:25;;;;;;;7.07;5.60;;;10.50;99.90;;;;;;5093429;28;20285;-73
2022/06/01 02:33:53;;;;;;;8.87;6.50;;;10.50;99.90;;;;;;5092607;28;20236;-73
2022/06/01 02:36:21;;;;;;;9.13;6.73;;;10.50;99.90;;;;;;5090020;28;20324;-73
2022/06/01 02:38:50;;;;;;;9.63;7.40;;;10.50;99.90;;;;;;5081765;28;20212;-73
2022/06/01 02:44:04;;;;;;;10.50;6.90;;;10.60;99.90;;;;;;5089917;28;20204;-72
2022/06/01 02:46:32;;;;;;;13.03;7.37;;;10.70;99.90;;;;;;5086943;28;20248;-73
2022/06/01 02:49:00;;;;;;;8.77;6.47;;;10.70;99.90;;;;;;5088917;28;20283;-73
2022/06/01 02:51:27;;;;;;;9.00;6.23;;;10.70;99.90;;;;;;5091574;28;20258;-73
2022/06/01 02:53:54;;;;;;;8.73;6.27;;;10.80;99.90;;;;;;5090769;28;20225;-73
2022/06/01 02:56:21;;;;;;;8.77;6.27;;;10.80;99.90;;;;;;5087451;28;20512;-73
2022/06/01 02:58:49;;;;;;;9.57;7.10;;;10.80;99.90;;;;;;5088676;28;20291;-73
2022/06/01 03:01:18;;;;;;;10.10;6.20;;;10.80;99.90;;;;;;5086669;28;20221;-74
2022/06/01 03:03:45;;;;;;;10.83;6.97;;;10.80;99.90;;;;;;5091562;28;20198;-73
2022/06/01 03:06:12;;;;;;;10.23;6.90;;;10.80;99.90;;;;;;5094212;28;20210;-73
2022/06/01 03:08:39;;;;;;;9.07;6.87;;;10.70;99.90;;;;;;5088822;28;20624;-73
2022/06/01 03:11:07;;;;;;;9.50;6.67;;;10.70;99.90;;;;;;5085336;28;20242;-73
2022/06/01 03:13:34;;;;;;;9.20;6.80;;;10.70;99.90;;;;;;5084470;28;20201;-73
2022/06/01 03:16:01;;;;;;;10.37;6.70;;;10.70;99.90;;;;;;5087311;28;20263;-75
2022/06/01 03:18:31;;;;;;;9.60;7.50;;;10.70;99.90;;;;;;5092357;28;20307;-75
2022/06/01 03:20:59;;;;;;;10.63;7.17;;;10.70;99.90;;;;;;5092460;28;20205;-75
2022/06/01 03:23:26;;;;;;;9.50;6.73;;;10.70;99.90;;;;;;5092427;28;20292;-75
2022/06/01 03:25:53;;;;;;;9.90;6.80;;;10.70;99.90;;;;;;5092728;28;20296;-75
2022/06/01 03:28:20;;;;;;;11.87;7.50;;;10.70;99.90;;;;;;5091988;28;20638;-75
2022/06/01 03:30:47;;;;;;;10.23;7.13;;;10.70;99.90;;;;;;5097817;28;20229;-75
2022/06/01 03:33:14;;;;;;;10.37;7.50;;;10.70;99.90;;;;;;5093066;28;20652;-75
2022/06/01 03:35:42;;;;;;;10.73;7.63;;;10.70;99.90;;;;;;5091979;28;20641;-75
2022/06/01 03:38:09;;;;;;;9.83;7.33;;;10.70;99.90;;;;;;5092282;28;20253;-75
2022/06/01 03:40:38;;;;;;;11.93;6.83;;;10.70;99.90;;;;;;5091360;28;20645;-75
2022/06/01 03:43:06;;;;;;;10.63;7.87;;;10.60;99.90;;;;;;5092194;28;20210;-75
2022/06/01 03:48:17;;;;;;;10.07;7.50;;;10.60;99.90;;;;;;5083601;28;20209;-75
2022/06/01 03:50:46;;;;;;;11.23;8.00;;;10.60;99.90;;;;;;5090127;28;20252;-75
2022/06/01 03:53:13;;;;;;;11.90;7.63;;;10.60;99.90;;;;;;5089593;28;20285;-75
2022/06/01 03:55:40;;;;;;;10.43;7.30;;;10.60;99.90;;;;;;5089979;28;20202;-75
2022/06/01 03:58:12;;;;;;;10.43;7.50;;;10.70;99.90;;;;;;5084283;28;20302;-75
2022/06/01 04:00:39;;;;;;;10.13;7.50;;;10.70;99.90;;;;;;5089446;28;20206;-75
2022/06/01 04:03:06;;;;;;;15.17;8.43;;;10.60;99.90;;;;;;5089933;28;20202;-75
2022/06/01 04:05:33;;;;;;;9.67;7.77;;;10.60;99.90;;;;;;5086490;28;20229;-74
2022/06/01 04:08:02;;;;;;;14.40;10.57;;;10.70;99.90;;;;;;5081986;28;20284;-75
2022/06/01 04:10:29;;;;;;;15.07;8.97;;;10.70;99.90;;;;;;5087019;28;20574;-75
2022/06/01 04:12:56;;;;;;;10.20;7.53;;;10.70;99.90;;;;;;5086912;28;20229;-75
2022/06/01 04:15:23;;;;;;;11.27;8.57;;;10.70;99.90;;;;;;5089958;28;20225;-75
2022/06/01 04:17:50;;;;;;;12.60;8.90;;;10.70;99.90;;;;;;5086412;28;20654;-75
2022/06/01 04:20:17;;;;;;;10.73;8.20;;;10.70;99.90;;;;;;5085936;28;20252;-75
2022/06/01 04:22:45;;;;;;;13.57;8.43;;;10.70;99.90;;;;;;5089627;28;20240;-75
2022/06/01 04:25:16;;;;;;;11.27;7.80;;;10.80;99.90;;;;;;5090075;28;20264;-75
2022/06/01 04:27:44;;;;;;;12.40;8.23;;;10.80;99.90;;;;;;5091278;28;20293;-75
2022/06/01 04:30:14;;;;;;;12.10;8.30;;;10.80;99.90;;;;;;5088232;28;20280;-75
2022/06/01 04:32:40;;;;;;;10.93;7.93;;;10.80;99.90;;;;;;5088875;28;20659;-75
2022/06/01 04:35:09;;;;;;;10.97;8.30;;;10.80;99.90;;;;;;5088250;28;20649;-75
2022/06/01 04:37:36;;;;;;;11.30;8.50;;;10.90;99.90;;;;;;5086551;28;20687;-74
2022/06/01 04:40:04;;;;;;;11.20;7.67;;;10.80;99.90;;;;;;5081117;28;20201;-75
2022/06/01 04:42:34;;;;;;;11.57;7.70;;;10.80;99.90;;;;;;5089447;28;20618;-75
2022/06/01 04:45:01;;;;;;;11.53;7.80;;;10.70;99.90;;;;;;5086266;28;20221;-75
2022/06/01 04:47:28;;;;;;;10.53;8.20;;;10.80;99.90;;;;;;5088547;28;20248;-75
2022/06/01 04:49:55;;;;;;;10.33;7.03;;;10.80;99.90;;;;;;5079950;28;20274;-75
2022/06/01 04:52:22;;;;;;;10.47;7.97;;;10.80;99.90;;;;;;5083438;28;20664;-75
2022/06/01 04:54:48;;;;;;;11.03;8.57;;;10.70;99.90;;;;;;5090098;28;20297;-75
2022/06/01 04:57:15;;;;;;;13.23;8.50;;;10.80;99.90;;;;;;5087099;28;20262;-75
2022/06/01 04:59:44;;;;;;;11.10;8.47;;;11.10;99.90;;;;;;5088813;28;20240;-75
2022/06/01 05:02:11;;;;;;;12.03;8.10;;;11.40;99.90;;;;;;5089936;28;20281;-75
2022/06/01 05:04:40;;;;;;;11.13;8.07;;;11.40;99.90;;;;;;5088278;28;20289;-75
2022/06/01 05:07:07;;;;;;;9.83;7.77;;;11.40;99.90;;;;;;5087332;28;20304;-75
2022/06/01 05:09:34;;;;;;;12.80;7.90;;;11.40;99.90;;;;;;5082516;28;20702;-75
2022/06/01 05:12:02;;;;;;;11.57;8.33;;;11.40;99.90;;;;;;5090129;28;20707;-75
2022/06/01 05:14:29;;;;;;;12.87;8.43;;;11.40;99.90;;;;;;5083369;28;20302;-75
2022/06/01 05:17:00;;;;;;;13.17;8.10;;;11.50;99.90;;;;;;5088053;28;20351;-75
2022/06/01 05:19:28;;;;;;;13.60;8.33;;;11.50;99.90;;;;;;5089542;28;20723;-75
2022/06/01 05:21:55;;;;;;;11.20;8.40;;;12.80;99.90;;;;;;5082036;28;20225;-75
2022/06/01 05:24:22;;;;;;;12.40;8.07;;;12.80;99.90;;;;;;5084419;28;20289;-75
2022/06/01 05:26:48;;;;;;;9.23;7.90;;;12.10;99.90;;;;;;5088214;28;20903;-75
2022/06/01 05:29:15;;;;;;;11.07;8.33;;;11.90;99.90;;;;;;5089187;28;20296;-75
2022/06/01 05:31:44;;;;;;;10.70;8.50;;;12.00;99.90;;;;;;5082931;28;20208;-75
2022/06/01 05:34:13;;;;;;;11.87;8.57;;;12.00;99.90;;;;;;5087846;28;20240;-75
2022/06/01 05:36:40;;;;;;;10.63;7.63;;;12.30;99.90;;;;;;5087611;28;20725;-75
2022/06/01 05:39:07;;;;;;;11.57;8.63;;;12.30;99.90;;;;;;5085875;28;20236;-75
2022/06/01 05:41:35;;;;;;;10.97;7.83;;;13.10;99.90;;;;;;5083913;28;20693;-75
2022/06/01 05:44:02;;;;;;;11.63;8.50;;;13.60;99.90;;;;;;5088781;28;20213;-75
2022/06/01 05:46:31;;;;;;;11.07;7.37;;;12.90;99.90;;;;;;5067284;28;20202;-75
2022/06/01 05:48:57;;;;;;;11.60;8.10;;;12.60;99.90;;;;;;5084195;28;20656;-75
2022/06/01 05:51:26;;;;;;;10.17;7.90;;;13.00;99.90;;;;;;5087316;28;20284;-75
2022/06/01 05:53:53;;;;;;;9.87;7.87;;;13.00;99.90;;;;;;5088600;28;20217;-74
2022/06/01 05:56:20;;;;;;;9.33;7.40;;;12.90;99.90;;;;;;5088105;28;20274;-74
2022/06/01 05:58:48;;;;;;;10.40;8.50;;;12.80;99.90;;;;;;5092230;28;20726;-74
2022/06/01 06:01:16;;;;;;;12.67;8.40;;;12.70;99.90;;;;;;5091034;28;20618;-73
2022/06/01 06:03:43;;;;;;;11.87;8.27;;;12.70;99.90;;;;;;5092549;28;20263;-73
2022/06/01 06:06:14;;;;;;;13.60;7.97;;;12.70;99.90;;;;;;5090389;28;20668;-73
2022/06/01 06:08:46;;;;;;;12.50;8.40;;;12.70;99.90;;;;;;5091566;28;20237;-73
2022/06/01 06:11:14;;;;;;;11.77;8.83;;;12.80;99.90;;;;;;5091696;28;20263;-73
2022/06/01 06:13:42;;;;;;;13.80;9.93;;;12.80;99.90;;;;;;5092688;28;20284;-73
2022/06/01 06:16:09;;;;;;;15.83;10.93;;;12.80;99.90;;;;;;5087557;28;20738;-73
2022/06/01 06:18:37;;;;;;;13.60;9.33;;;13.00;99.90;;;;;;5091856;28;20316;-73
2022/06/01 06:21:04;;;;;;;13.60;10.47;;;13.00;99.90;;;;;;5090077;28;20255;-72
2022/06/01 06:23:32;;;;;;;13.03;9.70;;;13.20;99.90;;;;;;5093011;28;20256;-72
2022/06/01 06:26:01;;;;;;;14.73;9.43;;;13.50;99.90;;;;;;5091016;28;20634;-72
2022/06/01 06:28:28;;;;;;;15.07;10.43;;;13.60;99.90;;;;;;5090937;28;20242;-73
2022/06/01 06:30:55;;;;;;;13.50;10.30;;;13.70;99.90;;;;;;5087154;28;20328;-72
2022/06/01 06:33:23;;;;;;;15.67;10.10;;;13.80;99.90;;;;;;5090443;28;20293;-72
2022/06/01 06:35:57;;;;;;;13.33;8.90;;;13.70;99.90;;;;;;5091437;28;21861;-72
2022/06/01 06:38:26;;;;;;;14.57;9.70;;;13.80;99.90;;;;;;5085751;28;20217;-73
2022/06/01 06:40:54;;;;;;;15.80;10.43;;;13.90;99.90;;;;;;5090627;28;20668;-73
2022/06/01 06:43:23;;;;;;;12.60;9.47;;;13.90;51.30;;;;;;5088470;28;20255;-73
2022/06/01 06:45:50;;;;;;;14.37;9.70;;;14.10;56.60;;;;;;5091536;28;20208;-72
2022/06/01 06:48:18;;;;;;;13.13;9.73;;;14.30;99.90;;;;;;5090984;28;20208;-73
2022/06/01 06:50:45;;;;;;;13.83;10.07;;;14.10;1.00;;;;;;5089250;28;20208;-72
2022/06/01 06:53:12;;;;;;;14.37;9.60;;;13.90;1.00;;;;;;5086425;28;20292;-72
2022/06/01 06:55:39;;;;;;;12.13;9.10;;;14.00;1.00;;;;;;5092816;28;20206;-73
2022/06/01 06:58:09;;;;;;;13.47;9.80;;;14.00;1.00;;;;;;5090161;28;20684;-72
2022/06/01 07:00:38;;;;;;;14.20;10.17;;;14.00;1.00;;;;;;5088914;28;20208;-72
2022/06/01 07:03:06;;;;;;;14.07;9.50;;;14.30;1.00;;;;;;5089752;28;20289;-73
2022/06/01 07:08:18;;;;;;;15.77;10.37;;;14.30;1.00;;;;;;5088284;28;20196;-72
2022/06/01 07:10:45;;;;;;;13.23;9.47;;;14.30;1.00;;;;;;5090688;28;20198;-73
2022/06/01 07:13:13;;;;;;;11.83;9.87;;;14.60;1.00;;;;;;5090893;28;20205;-73
2022/06/01 07:15:41;;;;;;;11.93;9.60;;;14.50;1.00;;;;;;5086879;28;20300;-73
2022/06/01 07:18:09;;;;;;;11.33;8.97;;;14.60;1.00;;;;;;5093334;28;20244;-72
2022/06/01 07:20:36;;;;;;;12.03;9.23;;;14.50;1.00;;;;;;5082786;28;20205;-73
2022/06/01 07:23:03;;;;;;;12.47;9.63;;;14.70;1.00;;;;;;5088957;28;20289;-72
2022/06/01 07:25:30;;;;;;;12.53;9.13;;;14.80;1.00;;;;;;5087914;28;20405;-73
2022/06/01 07:27:58;;;;;;;11.77;9.27;;;14.70;1.00;;;;;;5090737;28;20292;-72
2022/06/01 07:30:25;;;;;;;13.37;9.83;;;14.90;1.00;;;;;;5089381;28;20201;-72
2022/06/01 07:32:53;;;;;;;13.73;10.33;;;15.00;1.00;;;;;;5085840;28;20249;-73
2022/06/01 07:35:21;;;;;;;14.10;9.83;;;15.00;1.00;;;;;;5090014;28;20289;-72
2022/06/01 07:43:20;;;;;;;11.83;9.77;;;14.80;1.00;;;;;;5082464;28;20672;-73
2022/06/01 07:45:49;;;;;;;13.40;9.43;;;14.90;1.00;;;;;;5090798;28;20213;-73
2022/06/01 07:48:18;;;;;;;11.87;9.20;;;14.80;1.00;;;;;;5089928;28;20293;-73
2022/06/01 07:50:46;;;;;;;13.27;9.57;;;14.80;1.00;;;;;;5091127;28;20234;-73
2022/06/01 07:53:13;;;;;;;11.40;8.60;;;14.80;1.00;;;;;;5089013;28;20708;-73
2022/06/01 07:55:41;;;;;;;12.43;8.67;;;14.70;1.00;;;;;;5087199;28;20687;-73
2022/06/01 07:58:08;;;;;;;11.30;8.20;;;14.80;1.00;;;;;;5089369;28;20309;-73
2022/06/01 08:00:36;;;;;;;9.37;7.30;;;14.70;1.00;;;;;;5087538;28;20198;-73
2022/06/01 08:03:03;;;;;;;10.20;8.07;;;15.00;1.00;;;;;;5088722;28;20260;-73
2022/06/01 08:05:33;;;;;;;11.00;8.10;;;15.10;1.00;;;;;;5081517;28;20241;-73
2022/06/01 08:08:00;;;;;;;10.43;7.97;;;15.00;1.00;;;;;;5090790;28;20209;-73
2022/06/01 08:10:27;;;;;;;10.37;8.43;;;15.30;1.00;;;;;;5087104;28;20288;-73
2022/06/01 08:13:09;;;;;;;11.70;7.90;;;15.40;99.90;;;;;;5089218;28;20646;-73
2022/06/01 08:15:40;;;;;;;9.80;8.30;;;15.80;99.90;;;;;;5089463;28;20713;-72
2022/06/01 08:18:08;;;;;;;13.97;7.90;;;15.60;99.90;;;;;;5091076;28;20653;-73
2022/06/01 08:20:36;;;;;;;9.10;7.90;;;15.60;99.90;;;;;;5088938;28;20292;-73
2022/06/01 08:23:05;;;;;;;10.87;8.00;;;15.80;99.90;;;;;;5087514;28;20629;-73
2022/06/01 08:25:33;;;;;;;9.40;7.67;;;15.70;99.90;;;;;;5083009;28;20285;-72
2022/06/01 08:28:00;;;;;;;12.60;8.60;;;15.90;99.90;;;;;;5089764;28;20290;-73
2022/06/01 08:30:29;;;;;;;10.80;8.23;;;16.20;99.90;;;;;;5086879;28;20639;-73
2022/06/01 08:32:57;;;;;;;10.23;8.27;;;16.10;99.90;;;;;;5089262;28;20197;-73
2022/06/01 08:35:27;;;;;;;12.53;7.80;;;16.10;99.90;;;;;;5088365;28;20708;-73
2022/06/01 08:37:55;;;;;;;9.10;7.47;;;15.90;99.90;;;;;;5089202;28;20312;-73
2022/06/01 08:40:25;;;;;;;9.90;7.77;;;15.70;99.90;;;;;;5086456;28;20628;-72
2022/06/01 08:42:57;;;;;;;10.70;7.97;;;16.00;99.90;;;;;;5088818;28;20193;-72
2022/06/01 08:45:26;;;;;;;9.50;6.93;;;16.40;99.90;;;;;;5084803;28;20205;-72
2022/06/01 08:47:53;;;;;;;5.53;5.00;;;16.70;99.90;;;;;;5085345;28;20627;-72
2022/06/01 08:50:27;;;;;;;6.00;5.20;;;16.60;90.80;;;;;;5088001;28;20237;-72
2022/06/01 08:52:58;;;;;;;8.40;6.30;;;16.50;96.30;;;;;;5084692;28;20209;-73
2022/06/01 08:55:28;;;;;;;7.50;5.60;;;17.00;94.90;;;;;;5088288;28;20293;-73
2022/06/01 08:57:58;;;;;;;5.80;5.23;;;17.70;92.70;;;;;;5081727;28;20202;-73
2022/06/01 09:00:29;;;;;;;6.43;5.32;;;17.70;85.80;;;;;;5084423;28;20204;-72
2022/06/01 09:03:03;;;;;;;5.57;5.03;;;17.70;87.10;;;;;;5088842;28;20668;-72
2022/06/01 09:05:48;;;;;;;6.68;4.97;;;17.40;83.50;;;;;;5087051;28;20197;-73
2022/06/01 09:08:29;;;;;;;9.15;5.72;;;17.50;81.90;;;;;;5086332;28;20618;-73
2022/06/01 09:11:06;;;;;;;6.37;5.23;;;17.10;84.10;;;;;;5088727;28;20198;-73
2022/06/01 09:13:40;;;;;;;10.15;6.47;;;16.60;92.40;;;;;;5085136;28;20647;-73
2022/06/01 09:16:11;;;;;;;7.83;6.13;;;16.00;97.60;;;;;;5088338;28;20255;-73
2022/06/01 09:18:42;;;;;;;6.53;5.60;;;15.40;99.90;;;;;;5088345;28;20226;-73
2022/06/01 09:24:11;;;;;;;6.60;5.77;;;15.40;86.40;;;;;;5087760;28;20275;-70
2022/06/01 09:26:55;;;;;;;7.43;6.20;;;15.60;99.90;;;;;;5087491;28;20266;-69
2022/06/01 09:29:24;;;;;;;7.33;5.97;;;15.70;25.30;;;;;;5088243;28;20241;-70
2022/06/01 09:31:57;;;;;;;8.17;5.90;;;16.00;99.90;;;;;;5089209;28;20237;-70
2022/06/01 09:34:31;;;;;;;7.63;5.50;;;16.30;99.90;;;;;;5090971;28;20296;-70
2022/06/01 09:37:05;;;;;;;7.57;6.40;;;16.50;96.30;;;;;;5082543;28;20287;-69
2022/06/01 09:39:35;;;;;;;17.70;7.63;;;16.80;99.90;;;;;;5090920;28;20328;-70
2022/06/01 09:42:20;;;;;;;10.90;6.77;;;15.60;1.00;;;;;;5094026;28;20197;-70
2022/06/01 09:44:49;;;;;;;13.00;8.37;;;14.70;99.90;;;;;;5094360;28;20206;-70
2022/06/01 09:47:34;;;;;;;8.43;7.53;;;14.50;99.90;;;;;;5091328;28;20206;-70
2022/06/01 09:50:03;;;;;;;8.33;6.30;;;14.40;99.90;;;;;;5090697;28;20237;-70
2022/06/01 09:52:33;;;;;;;6.93;5.23;;;13.70;99.90;;;;;;5092832;28;20228;-70
2022/06/01 09:55:13;;;;;;;5.33;4.60;;;13.40;99.90;;;;;;5087210;28;20277;-69
2022/06/01 09:57:40;;;;;;;103.90;11.20;;;13.20;99.90;;;;;;5091796;28;20688;-69
2022/06/01 10:06:16;;;;;;;4.73;4.23;;;15.60;99.90;;;;;;5091790;28;20242;-69
2022/06/01 10:08:55;;;;;;;7.83;6.67;;;15.90;99.90;;;;;;5091239;28;20205;-69
2022/06/01 10:11:29;;;;;;;10.33;6.53;;;16.70;99.90;;;;;;5098222;28;20201;-69
2022/06/01 10:14:21;;;;;;;7.53;6.53;;;16.80;99.90;;;;;;5092986;28;20201;-69
2022/06/01 10:17:12;;;;;;;7.97;7.07;;;16.90;99.90;;;;;;5094722;28;20234;-69
2022/06/01 10:19:42;;;;;;;11.07;7.43;;;16.80;99.90;;;;;;5085960;28;20251;-69
2022/06/01 10:22:17;;;;;;;8.80;7.20;;;16.90;99.90;;;;;;5094092;28;20189;-70
2022/06/01 10:24:50;;;;;;;10.07;8.13;;;16.80;99.90;;;;;;5090910;28;20711;-70
2022/06/01 10:27:22;;;;;;;10.13;8.07;;;17.00;99.90;;;;;;5088112;28;20236;-70
2022/06/01 10:29:58;;;;;;;10.02;8.13;;;17.40;99.90;;;;;;5089981;28;20249;-70
2022/06/01 10:32:35;;;;;;;9.57;7.45;;;17.20;99.90;;;;;;5089269;28;20202;-70
2022/06/01 10:35:15;;;;;;;9.50;7.03;;;16.90;99.90;;;;;;5074202;28;20205;-70
2022/06/01 10:37:59;;;;;;;9.38;6.35;;;17.10;99.90;;;;;;5092455;28;20293;-70
2022/06/01 10:40:35;;;;;;;8.65;7.28;;;17.80;99.90;;;;;;5088112;28;20278;-70
2022/06/01 10:43:18;;;;;;;9.30;7.05;;;18.40;99.90;;;;;;5092207;28;20233;-70
2022/06/01 10:45:49;;;;;;;9.13;6.63;;;18.60;99.90;;;;;;5090704;28;20238;-70
2022/06/01 10:48:22;;;;;;;7.82;6.05;;;18.50;99.90;;;;;;5084133;28;20718;-70
2022/06/01 10:50:59;;;;;;;7.00;5.88;;;18.70;99.90;;;;;;5089618;28;20200;-70
2022/06/01 10:53:42;;;;;;;7.60;6.13;;;18.70;99.90;;;;;;5074603;28;20289;-70
2022/06/01 10:56:09;;;;;;;5.07;4.20;;;18.80;99.90;;;;;;5085777;28;20628;-70
2022/06/01 10:58:38;;;;;;;6.75;3.80;;;18.80;94.00;;;;;;5090821;28;20225;-70
2022/06/01 11:01:21;;;;;;;4.55;3.45;;;18.90;94.20;;;;;;5085681;28;20566;-70
2022/06/01 11:04:14;;;;;;;3.78;2.40;;;19.40;90.00;;;;;;5070186;28;20640;-70
2022/06/01 11:06:58;;;;;;;3.08;2.40;;;19.10;83.60;;;;;;5090194;28;20201;-70
2022/06/01 11:09:30;;;;;;;3.65;3.17;;;19.30;85.20;;;;;;5071421;28;20241;-71
2022/06/01 11:12:06;;;;;;;3.85;3.10;;;19.00;73.00;;;;;;5087763;28;20194;-70
2022/06/01 11:14:54;;;;;;;3.70;3.00;;;19.40;74.00;;;;;;5088298;28;20213;-71
2022/06/01 11:17:26;;;;;;;4.88;3.40;;;19.70;78.00;;;;;;5069388;28;20304;-71
2022/06/01 11:20:14;;;;;;;4.10;3.58;;;19.80;72.70;;;;;;5089565;28;20226;-71
2022/06/01 11:22:55;;;;;;;6.25;4.15;;;19.60;70.30;;;;;;5083556;28;20292;-70
2022/06/01 11:25:30;;;;;;;5.07;4.68;;;19.50;65.20;;;;;;5091920;28;20614;-70
2022/06/01 11:28:16;;;;;;;5.10;4.60;;;20.00;63.00;;;;;;5067466;28;20229;-70
2022/06/01 11:30:55;;;;;;;4.75;4.05;;;19.80;56.20;;;;;;5091695;28;20293;-78
2022/06/01 11:33:32;;;;;;;5.95;4.03;;;19.80;56.90;;;;;;5070882;28;20293;-70
2022/06/01 11:36:03;;;;;;;4.60;4.10;;;19.80;56.80;;;;;;5073117;28;20644;-70
2022/06/01 11:38:36;;;;;;;4.50;3.88;;;20.10;59.60;;;;;;5091342;28;20201;-70
2022/06/01 11:41:09;;;;;;;4.78;4.35;;;20.50;58.30;;;;;;5105152;28;20213;-70
2022/06/01 11:43:42;;;;;;;4.80;4.20;;;21.00;53.00;;;;;;5112037;28;20663;-70
2022/06/01 11:46:14;;;;;;;5.63;3.92;;;20.50;50.80;;;;;;5093355;28;20230;-70
2022/06/01 11:48:54;;;;;;;4.60;4.20;;;20.40;52.20;;;;;;5085422;28;20285;-70
2022/06/01 11:51:26;;;;;;;5.57;4.20;;;19.90;52.20;;;;;;5087688;28;20723;-70
2022/06/01 11:54:01;;;;;;;5.15;4.65;;;19.60;54.90;;;;;;5088579;28;20248;-70
2022/06/01 11:56:37;;;;;;;5.68;4.68;;;19.20;55.90;;;;;;5085300;28;20708;-70
2022/06/01 11:59:14;;;;;;;5.55;4.68;;;19.40;58.00;;;;;;5089489;28;20228;-70
2022/06/01 12:01:56;;;;;;;4.95;4.50;;;20.20;53.10;;;;;;5087438;28;20198;-70
2022/06/01 12:04:32;;;;;;;6.95;4.60;;;20.50;52.30;;;;;;5089788;28;20679;-70
2022/06/01 12:07:06;;;;;;;5.88;5.07;;;20.60;56.50;;;;;;5089803;28;20201;-70
2022/06/01 12:09:41;;;;;;;7.00;5.38;;;20.90;54.50;;;;;;5089358;28;20570;-70
2022/06/01 12:12:24;;;;;;;4.88;4.43;;;21.10;48.70;;;;;;5086099;28;20208;-70
2022/06/01 12:14:58;;;;;;;4.90;4.45;;;20.50;44.40;;;;;;5089100;28;20730;-70
2022/06/01 12:17:35;;;;;;;6.45;4.88;;;19.90;49.10;;;;;;5090393;28;20208;-70
2022/06/01 12:20:35;;;;;;;6.00;5.40;;;19.70;52.20;;;;;;5088092;28;20332;-70
2022/06/01 12:29:51;;;;;;;8.23;6.78;;;17.80;77.50;;;;;;5085463;28;20240;-70
2022/06/01 12:32:18;;;;;;;9.93;7.07;;;17.00;86.60;;;;;;5087367;28;20281;-70
2022/06/01 12:35:08;;;;;;;8.60;6.95;;;17.10;96.20;;;;;;5089262;28;20281;-69
2022/06/01 12:37:40;;;;;;;8.90;6.97;;;16.50;99.90;;;;;;5087208;28;20208;-69
2022/06/01 12:40:13;;;;;;;9.38;8.30;;;16.00;1.00;;;;;;5090468;28;20222;-69
2022/06/01 12:42:44;;;;;;;10.23;7.78;;;15.50;1.50;;;;;;5089589;28;20209;-70
2022/06/01 12:45:15;;;;;;;9.15;6.22;;;15.00;99.90;;;;;;5084973;28;20198;-70
2022/06/01 12:47:44;;;;;;;9.33;6.87;;;13.90;99.90;;;;;;5086999;28;20284;-72
2022/06/01 12:50:16;;;;;;;8.87;6.30;;;13.70;99.90;;;;;;5086362;28;20576;-74
2022/06/01 12:52:44;;;;;;;8.73;5.93;;;13.80;99.90;;;;;;5089158;28;20723;-73
2022/06/01 12:55:13;;;;;;;7.13;6.00;;;14.50;99.90;;;;;;5087589;28;20695;-73
2022/06/01 12:57:49;;;;;;;9.00;6.50;;;14.80;99.90;;;;;;5088267;28;20365;-73
2022/06/01 13:00:20;;;;;;;14.97;6.30;;;15.60;99.90;;;;;;5084006;28;20228;-73
2022/06/01 13:02:47;;;;;;;9.60;5.67;;;16.40;99.90;;;;;;5086988;28;20288;-73
2022/06/01 13:05:22;;;;;;;6.10;4.53;;;16.90;99.90;;;;;;5089031;28;20449;-73
2022/06/01 13:07:56;;;;;;;4.77;4.37;;;17.10;99.90;;;;;;5085090;28;20233;-73
2022/06/01 13:10:26;;;;;;;4.60;4.20;;;17.50;99.90;;;;;;5083936;28;20206;-72
2022/06/01 13:13:02;;;;;;;4.13;3.83;;;17.60;74.30;;;;;;5086229;28;20256;-73
2022/06/01 13:15:29;;;;;;;4.40;3.97;;;17.70;30.50;;;;;;5084950;28;20197;-73
2022/06/01 13:17:59;;;;;;;6.00;5.38;;;17.60;99.90;;;;;;5081800;28;20198;-73
2022/06/01 13:20:37;;;;;;;5.65;5.15;;;17.90;99.90;;;;;;5091960;28;20316;-72
2022/06/01 13:23:07;;;;;;;6.25;4.53;;;18.20;99.90;;;;;;5072620;28;20233;-73
2022/06/01 13:25:36;;;;;;;4.78;4.38;;;18.00;99.90;;;;;;5099425;28;20204;-73
2022/06/01 13:28:04;;;;;;;5.68;4.93;;;18.40;1.00;;;;;;5099311;28;20297;-73
2022/06/01 13:30:33;;;;;;;5.95;5.32;;;18.50;1.00;;;;;;5090122;28;20205;-73
2022/06/01 13:33:20;;;;;;;7.40;5.45;;;18.70;99.90;;;;;;5090269;28;20229;-73
2022/06/01 13:35:57;;;;;;;7.68;6.72;;;18.80;99.90;;;;;;5089928;28;20201;-73
2022/06/01 13:38:33;;;;;;;8.25;7.30;;;18.40;99.90;;;;;;5090122;28;20210;-73
2022/06/01 13:41:04;;;;;;;8.18;7.35;;;18.50;99.90;;;;;;5087861;28;20256;-73